createdAt,value
2022-07-28T00:02:49.872Z,-23.1796
2022-07-28T00:07:50.849Z,-23.15286
2022-07-28T00:12:51.766Z,-23.41144
2022-07-28T00:17:52.700Z,-23.69055
2022-07-28T00:22:53.641Z,-23.56128
2022-07-28T00:33:00.128Z,-23.14645
2022-07-28T00:43:01.646Z,-23.57519
2022-07-28T00:48:02.540Z,-23.85285
2022-07-28T00:53:03.491Z,-23.48888
2022-07-28T00:58:05.722Z,-23.23702
2022-07-28T01:03:06.697Z,-23.83415
2022-07-28T01:08:07.707Z,-23.92712
2022-07-28T01:13:08.664Z,-24.17554
2022-07-28T01:18:09.587Z,-24.02455
2022-07-28T01:23:10.496Z,-24.31054
2022-07-28T01:28:11.537Z,-24.08902
2022-07-28T01:33:12.587Z,-24.0064
2022-07-28T01:38:13.551Z,-24.85128
2022-07-28T01:43:14.443Z,-24.71419
2022-07-28T01:48:15.394Z,-24.83471
2022-07-28T01:53:16.339Z,-24.76374
2022-07-28T01:58:17.321Z,-24.08905
2022-07-28T02:03:18.235Z,-24.31659
2022-07-28T02:08:19.148Z,-24.20017
2022-07-28T02:13:20.080Z,-24.37703
2022-07-28T02:18:21.033Z,-24.28819
2022-07-28T02:23:22.014Z,-24.52671
2022-07-28T02:28:22.997Z,-24.58051
2022-07-28T02:33:29.574Z,-24.69585
2022-07-28T02:39:00.106Z,-24.51936
2022-07-28T02:44:01.075Z,-24.76072
2022-07-28T02:49:02.241Z,-24.86539
2022-07-28T02:54:03.252Z,-25.35221
2022-07-28T02:59:04.157Z,-25.56517
2022-07-28T03:04:05.081Z,-26.04614
2022-07-28T03:09:05.987Z,-26.4839
2022-07-28T03:14:08.562Z,-26.97875
2022-07-28T03:19:09.508Z,-27.54096
2022-07-28T03:24:10.749Z,-27.95923
2022-07-28T03:29:11.857Z,-27.89542
2022-07-28T03:34:13.079Z,-28.73436
2022-07-28T03:39:14.226Z,-28.41221
2022-07-28T03:44:15.502Z,-28.8546
2022-07-28T03:49:29.713Z,-28.57099
2022-07-28T03:54:30.636Z,-28.99347
2022-07-28T03:59:31.560Z,-29.61188
2022-07-28T04:04:32.508Z,-29.78357
2022-07-28T04:09:33.416Z,-29.68772
2022-07-28T04:14:34.641Z,-29.99865
2022-07-28T04:19:35.586Z,-29.79723
2022-07-28T04:24:36.860Z,-29.78681
2022-07-28T04:29:37.786Z,-29.95148
2022-07-28T04:34:39.559Z,-29.91975
2022-07-28T04:39:40.477Z,-29.91929
2022-07-28T04:44:41.401Z,-30.38635
2022-07-28T04:49:42.344Z,-30.7599
2022-07-28T04:54:43.260Z,-30.7752
2022-07-28T04:59:44.209Z,-30.47376
2022-07-28T05:04:49.364Z,-30.53431
2022-07-28T05:09:50.376Z,-30.56703
2022-07-28T05:14:51.264Z,-30.58501
2022-07-28T05:19:52.417Z,-30.46661
2022-07-28T05:24:53.345Z,-30.61683
2022-07-28T05:29:54.262Z,-31.08248
2022-07-28T05:34:55.217Z,-31.33749
2022-07-28T05:39:56.118Z,-31.34691
2022-07-28T05:44:57.043Z,-31.79825
2022-07-28T05:49:57.975Z,-32.02039
2022-07-28T05:54:58.922Z,-31.99303
2022-07-28T05:59:59.837Z,-31.64275
2022-07-28T06:05:00.703Z,-32.20825
2022-07-28T06:10:01.867Z,-31.93261
2022-07-28T06:15:03.399Z,-32.23619
2022-07-28T06:20:04.917Z,-32.49708
2022-07-28T06:25:05.871Z,-32.68396
2022-07-28T06:30:06.811Z,-33.3156
2022-07-28T06:35:07.728Z,-32.85436
2022-07-28T06:40:08.678Z,-32.87944
2022-07-28T06:45:09.701Z,-32.73305
2022-07-28T06:50:24.694Z,-32.7677
2022-07-28T06:55:34.599Z,-32.40864
2022-07-28T07:00:36.752Z,-31.90572
2022-07-28T07:05:37.726Z,-32.15541
2022-07-28T07:10:38.632Z,-31.65777
2022-07-28T07:15:39.558Z,-31.7615
2022-07-28T07:20:40.530Z,-32.07227
2022-07-28T07:25:41.458Z,-32.0376
2022-07-28T07:30:42.696Z,-31.69724
2022-07-28T07:35:43.630Z,-31.3927
2022-07-28T07:40:44.551Z,-32.16143
2022-07-28T07:45:45.479Z,-32.02023
2022-07-28T07:50:50.467Z,-32.02868
2022-07-28T07:55:54.403Z,-31.73357
2022-07-28T08:00:55.314Z,-31.89256
2022-07-28T08:05:56.293Z,-31.95339
2022-07-28T08:10:58.445Z,-31.41864
2022-07-28T08:15:59.733Z,-31.5151
2022-07-28T08:21:00.734Z,-31.48432
2022-07-28T08:26:06.769Z,-31.64037
2022-07-28T08:31:07.895Z,-31.60711
2022-07-28T08:36:09.402Z,-31.6431
2022-07-28T08:41:10.681Z,-32.06945
2022-07-28T08:46:12.011Z,-32.51905
2022-07-28T08:51:13.058Z,-31.8211
2022-07-28T08:56:14.015Z,-31.30809
2022-07-28T09:01:20.074Z,-31.83008
2022-07-28T09:06:21.093Z,-31.82216
2022-07-28T09:11:24.753Z,-32.17044
2022-07-28T09:16:25.740Z,-31.99676
2022-07-28T09:21:26.777Z,-31.17891
2022-07-28T09:26:27.823Z,-31.65422
2022-07-28T09:31:28.853Z,-31.40545
2022-07-28T09:36:30.211Z,-31.08607
2022-07-28T09:41:31.249Z,-31.22153
2022-07-28T09:46:32.850Z,-30.84271
2022-07-28T09:51:33.999Z,-31.17292
2022-07-28T09:56:35.447Z,-31.01348
2022-07-28T10:01:37.172Z,-30.98548
2022-07-28T10:06:38.380Z,-30.26873
2022-07-28T10:11:41.700Z,-30.11362
2022-07-28T10:16:42.935Z,-30.31129
2022-07-28T10:21:43.930Z,-30.13677
2022-07-28T10:26:44.855Z,-30.00948
2022-07-28T10:31:45.779Z,-29.80372
2022-07-28T10:36:46.739Z,-29.1729
2022-07-28T10:41:47.685Z,-29.09431
2022-07-28T10:46:48.644Z,-29.03002
2022-07-28T10:52:06.381Z,-28.57428
2022-07-28T10:57:10.037Z,-28.94381
2022-07-28T11:02:11.104Z,-28.48663
2022-07-28T11:07:12.718Z,-28.57072
2022-07-28T11:12:13.658Z,-27.6692
2022-07-28T11:17:14.962Z,-27.71619
2022-07-28T11:22:15.964Z,-26.9041
2022-07-28T11:27:19.724Z,-27.56841
2022-07-28T11:32:20.658Z,-27.68446
2022-07-28T11:37:28.142Z,-27.46046
2022-07-28T11:42:29.355Z,-26.49545
2022-07-28T11:52:32.384Z,-25.46212
2022-07-28T12:02:33.906Z,-25.26201
2022-07-28T12:07:36.806Z,-24.87812
2022-07-28T12:12:37.719Z,-24.66675
2022-07-28T12:17:38.648Z,-24.38636
2022-07-28T12:22:41.836Z,-23.85952
2022-07-28T12:27:45.815Z,-23.25066
2022-07-28T12:32:47.024Z,-23.20475
2022-07-28T12:37:47.940Z,-22.80222
2022-07-28T12:42:52.019Z,-22.30114
2022-07-28T12:47:54.663Z,-21.90811
2022-07-28T12:52:55.672Z,-21.45782
2022-07-28T12:57:56.612Z,-21.04381
2022-07-28T13:02:57.591Z,-20.98413
2022-07-28T13:07:58.929Z,-20.54029
2022-07-28T13:13:02.907Z,-20.59677
2022-07-28T13:18:03.866Z,-20.65348
2022-07-28T13:23:04.808Z,-20.35251
2022-07-28T13:28:06.440Z,-19.81983
2022-07-28T13:33:11.966Z,-19.47834
2022-07-28T13:38:14.985Z,-18.79228
2022-07-28T13:43:15.934Z,-18.79994
2022-07-28T13:48:16.984Z,-18.95188
2022-07-28T13:53:17.946Z,-18.77572
2022-07-28T13:58:19.430Z,-18.70222
2022-07-28T14:03:26.325Z,-18.38476
2022-07-28T14:08:27.270Z,-17.7865
2022-07-28T14:13:28.228Z,-16.9502
2022-07-28T14:18:32.753Z,-17.03038
2022-07-28T14:23:33.705Z,-17.10647
2022-07-28T14:28:34.815Z,-16.77154
2022-07-28T14:33:35.727Z,-15.85317
2022-07-28T14:38:52.281Z,-15.59154
2022-07-28T14:43:54.268Z,-15.18194
2022-07-28T14:48:55.195Z,-14.61626
2022-07-28T14:53:56.174Z,-14.35697
2022-07-28T14:58:57.205Z,-14.25138
2022-07-28T15:03:58.202Z,-14.27532
2022-07-28T15:08:59.241Z,-13.79549
2022-07-28T15:14:00.291Z,-13.92429
2022-07-28T15:19:01.421Z,-13.57273
2022-07-28T15:24:02.557Z,-13.35184
2022-07-28T15:29:03.720Z,-13.6828
2022-07-28T15:34:04.823Z,-13.18412
2022-07-28T15:39:08.005Z,-13.03714
2022-07-28T15:44:10.252Z,-12.91713
2022-07-28T15:49:11.222Z,-12.88109
2022-07-28T15:54:12.476Z,-12.48853
2022-07-28T15:59:13.680Z,-12.88022
2022-07-28T16:04:14.864Z,-12.78022
2022-07-28T16:09:16.020Z,-12.69092
2022-07-28T16:14:17.898Z,-12.69767
2022-07-28T16:19:38.597Z,-12.12526
2022-07-28T16:24:47.485Z,-11.9337
2022-07-28T16:29:48.438Z,-11.33954
2022-07-28T16:39:52.946Z,-12.02835
2022-07-28T16:44:53.910Z,-12.56485
2022-07-28T16:49:54.842Z,-12.82725
2022-07-28T16:54:55.786Z,-12.43876
2022-07-28T16:59:56.757Z,-12.44084
2022-07-28T17:04:57.787Z,-12.12908
2022-07-28T17:09:58.772Z,-12.46295
2022-07-28T17:14:59.727Z,-12.30532
2022-07-28T17:20:00.730Z,-12.88242
2022-07-28T17:25:02.275Z,-13.34347
2022-07-28T17:35:03.662Z,-13.69376
2022-07-28T17:40:04.930Z,-14.07463
2022-07-28T17:45:05.915Z,-14.30438
2022-07-28T17:50:06.876Z,-13.88606
2022-07-28T17:55:07.877Z,-14.03906
2022-07-28T18:00:08.889Z,-13.48774
2022-07-28T18:05:10.046Z,-13.66547
2022-07-28T18:10:12.197Z,-13.53598
2022-07-28T18:15:13.264Z,-13.25162
2022-07-28T18:20:14.233Z,-13.34228
2022-07-28T18:25:15.209Z,-13.4903
2022-07-28T18:30:17.010Z,-13.63242
2022-07-28T18:35:17.927Z,-13.38721
2022-07-28T18:40:18.839Z,-13.27895
2022-07-28T18:45:19.792Z,-13.39374
2022-07-28T18:50:29.200Z,-13.60049
2022-07-28T18:55:32.829Z,-13.63181
2022-07-28T19:00:33.824Z,-13.67528
2022-07-28T19:05:36.701Z,-13.83874
2022-07-28T19:10:38.404Z,-14.49955
2022-07-28T19:15:39.465Z,-15.02446
2022-07-28T19:20:40.444Z,-15.00942
2022-07-28T19:25:41.363Z,-15.07898
2022-07-28T19:30:42.398Z,-15.44488
2022-07-28T19:35:43.389Z,-15.37908
2022-07-28T19:40:44.304Z,-15.23522
2022-07-28T19:45:45.343Z,-15.32542
2022-07-28T19:50:50.086Z,-15.69689
2022-07-28T19:55:52.268Z,-16.20475
2022-07-28T20:00:54.415Z,-16.61156
2022-07-28T20:11:00.233Z,-17.18716
2022-07-28T20:16:01.167Z,-17.54982
2022-07-28T20:21:02.152Z,-17.90309
2022-07-28T20:26:08.155Z,-18.35858
2022-07-28T20:31:14.931Z,-18.68531
2022-07-28T20:36:17.850Z,-18.67363
2022-07-28T20:41:18.769Z,-18.64623
2022-07-28T20:46:19.837Z,-18.67222
2022-07-28T20:51:20.783Z,-18.99812
2022-07-28T20:56:21.712Z,-19.28795
2022-07-28T21:01:23.033Z,-19.34823
2022-07-28T21:06:24.009Z,-18.99258
2022-07-28T21:11:25.559Z,-19.03427
2022-07-28T21:16:26.530Z,-19.49712
2022-07-28T21:21:27.467Z,-19.51897
2022-07-28T21:26:28.401Z,-19.83457
2022-07-28T21:31:29.333Z,-19.95351
2022-07-28T21:36:30.651Z,-20.47972
2022-07-28T21:46:32.015Z,-20.71068
2022-07-28T21:51:32.960Z,-20.38797
2022-07-28T22:01:34.501Z,-20.82123
2022-07-28T22:06:35.572Z,-21.01033
2022-07-28T22:11:36.565Z,-21.38276
2022-07-28T22:16:39.321Z,-21.45301
2022-07-28T22:21:40.348Z,-21.51995
2022-07-28T22:36:42.293Z,-22.72626
2022-07-28T22:52:24.213Z,-23.76688
2022-07-28T22:57:25.394Z,-23.78155
2022-07-28T23:02:26.385Z,-24.04917
2022-07-28T23:07:50.778Z,-24.74483
2022-07-28T23:12:56.173Z,-24.93375
2022-07-28T23:22:58.790Z,-25.20152
2022-07-28T23:27:59.702Z,-25.13163
2022-07-28T23:38:01.283Z,-24.31245
2022-07-28T23:43:02.557Z,-24.42224
2022-07-28T23:48:03.580Z,-24.92266
2022-07-28T23:53:04.597Z,-24.9212
2022-07-28T23:58:05.855Z,-24.45249
